createdAt,value
2023-07-21T00:00:33.257Z,152479.13
2023-07-21T00:02:59.514Z,152490.56
2023-07-21T00:05:25.833Z,152475.31
2023-07-21T00:07:52.100Z,152488.03
2023-07-21T00:10:18.352Z,152434.72
2023-07-21T00:12:45.792Z,152413.09
2023-07-21T00:15:12.011Z,152401.66
2023-07-21T00:17:38.730Z,152438.50
2023-07-21T00:20:05.000Z,152390.19
2023-07-21T00:22:31.215Z,152395.28
2023-07-21T00:24:57.469Z,152396.53
2023-07-21T00:27:23.760Z,152385.16
2023-07-21T00:29:49.971Z,152325.50
2023-07-21T00:32:16.245Z,152334.38
2023-07-21T00:34:42.903Z,152277.25
2023-07-21T00:37:09.182Z,152363.56
2023-07-21T00:39:35.484Z,152363.56
2023-07-21T00:42:01.785Z,152333.09
2023-07-21T00:44:28.006Z,152295.03
2023-07-21T00:46:54.280Z,152330.56
2023-07-21T00:49:21.281Z,152343.28
2023-07-21T00:51:47.650Z,152321.66
2023-07-21T00:54:13.946Z,152347.06
2023-07-21T00:56:40.218Z,152362.31
2023-07-21T00:59:06.487Z,152369.91
2023-07-21T01:01:32.765Z,152341.97
2023-07-21T01:03:59.069Z,152372.44
2023-07-21T01:06:25.491Z,152361.03
2023-07-21T01:11:18.197Z,152368.63
2023-07-21T01:13:44.463Z,152374.97
2023-07-21T01:16:10.710Z,152357.19
2023-07-21T01:18:36.994Z,152317.84
2023-07-21T01:21:03.267Z,152336.91
2023-07-21T01:23:29.561Z,152354.66
2023-07-21T01:25:55.866Z,152352.13
2023-07-21T01:28:22.080Z,152305.16
2023-07-21T01:30:48.471Z,152329.31
2023-07-21T01:33:14.782Z,152334.38
2023-07-21T01:35:41.096Z,152357.19
2023-07-21T01:38:07.381Z,152270.94
2023-07-21T01:40:33.672Z,152314.06
2023-07-21T01:42:59.911Z,152322.94
2023-07-21T01:45:26.144Z,152314.06
2023-07-21T01:47:52.494Z,152336.91
2023-07-21T01:50:18.779Z,152367.38
2023-07-21T01:52:45.034Z,152330.56
2023-07-21T01:55:11.334Z,152305.16
2023-07-21T01:57:37.566Z,152317.84
2023-07-21T02:00:04.310Z,152277.25
2023-07-21T02:02:30.702Z,152239.19
2023-07-21T02:04:57.138Z,152278.53
2023-07-21T02:07:23.455Z,152295.03
2023-07-21T02:09:49.717Z,152287.38
2023-07-21T02:12:15.992Z,152258.22
2023-07-21T02:14:42.266Z,152286.13
2023-07-21T02:17:08.677Z,152292.50
2023-07-21T02:19:35.008Z,152279.78
2023-07-21T02:22:01.611Z,152292.50
2023-07-21T02:24:27.945Z,152314.06
2023-07-21T02:26:54.249Z,152376.22
2023-07-21T02:29:20.562Z,152340.69
2023-07-21T02:31:46.977Z,152353.41
2023-07-21T02:34:13.676Z,152358.47
2023-07-21T02:36:39.912Z,152366.09
2023-07-21T02:39:06.179Z,152387.69
2023-07-21T02:41:32.512Z,152409.28
2023-07-21T02:43:58.794Z,152425.81
2023-07-21T02:46:25.306Z,152358.47
2023-07-21T02:48:51.736Z,152383.88
2023-07-21T02:51:18.379Z,152353.41
2023-07-21T02:53:44.631Z,152362.31
2023-07-21T02:56:10.972Z,152406.72
2023-07-21T02:58:37.386Z,152395.28
2023-07-21T03:01:03.825Z,152396.53
2023-07-21T03:03:30.299Z,152415.69
2023-07-21T03:05:56.999Z,152451.22
2023-07-21T03:08:23.261Z,152443.56
2023-07-21T03:10:49.669Z,152456.28
2023-07-21T03:13:15.999Z,152452.50
2023-07-21T03:15:42.287Z,152474.06
2023-07-21T03:18:08.561Z,152463.88
2023-07-21T03:20:34.893Z,152472.78
2023-07-21T03:23:01.242Z,152489.31
2023-07-21T03:25:27.530Z,152495.63
2023-07-21T03:27:53.782Z,152496.91
2023-07-21T03:30:20.088Z,152498.16
2023-07-21T03:32:56.006Z,152510.88
2023-07-21T03:35:22.305Z,152480.38
2023-07-21T03:37:48.588Z,152489.31
2023-07-21T03:40:14.894Z,152504.50
2023-07-21T03:42:41.172Z,152499.44
2023-07-21T03:45:07.466Z,152465.16
2023-07-21T03:47:33.874Z,152490.56
2023-07-21T03:50:00.281Z,152485.47
2023-07-21T03:52:26.560Z,152512.16
2023-07-21T03:54:52.911Z,152489.31
2023-07-21T03:57:19.206Z,152509.63
2023-07-21T03:59:45.484Z,152482.94
2023-07-21T04:02:11.758Z,152475.31
2023-07-21T04:04:38.129Z,152485.47
2023-07-21T04:07:04.502Z,152449.91
2023-07-21T04:09:30.725Z,152410.56
2023-07-21T04:11:56.960Z,152430.88
2023-07-21T04:14:23.225Z,152444.84
2023-07-21T04:16:49.500Z,152447.38
2023-07-21T04:19:15.764Z,152451.22
2023-07-21T04:21:42.040Z,152415.69
2023-07-21T04:24:08.295Z,152438.50
2023-07-21T04:26:34.514Z,152418.19
2023-07-21T04:29:00.727Z,152409.28
2023-07-21T04:31:27.117Z,152374.97
2023-07-21T04:33:53.440Z,152392.75
2023-07-21T04:36:19.666Z,152399.13
2023-07-21T04:38:45.947Z,152374.97
2023-07-21T04:41:12.227Z,152406.72
2023-07-21T04:43:38.508Z,152368.63
2023-07-21T04:46:04.770Z,152378.81
2023-07-21T04:48:31.058Z,152392.75
2023-07-21T04:50:57.306Z,152358.47
2023-07-21T04:53:23.584Z,152334.38
2023-07-21T04:55:49.834Z,152345.81
2023-07-21T04:58:16.072Z,152396.53
2023-07-21T05:00:42.349Z,152401.66
2023-07-21T05:03:08.805Z,152411.81
2023-07-21T05:05:35.112Z,152443.56
2023-07-21T05:08:01.386Z,152413.09
2023-07-21T05:10:27.677Z,152394.00
2023-07-21T05:12:53.960Z,152410.56
2023-07-21T05:15:20.354Z,152413.09
2023-07-21T05:17:49.711Z,152411.81
2023-07-21T05:20:15.990Z,152404.19
2023-07-21T05:22:42.281Z,152416.94
2023-07-21T05:25:08.597Z,152430.88
2023-07-21T05:27:34.866Z,152419.47
2023-07-21T05:30:01.092Z,152406.72
2023-07-21T05:32:27.415Z,152420.72
2023-07-21T05:34:53.732Z,152438.50
2023-07-21T05:37:19.948Z,152447.38
2023-07-21T05:39:46.150Z,152466.41
2023-07-21T05:42:12.424Z,152449.91
2023-07-21T05:44:38.716Z,152458.81
2023-07-21T05:47:05.040Z,152480.38
2023-07-21T05:49:31.359Z,152507.09
2023-07-21T05:51:58.052Z,152517.22
2023-07-21T05:54:24.342Z,152462.63
2023-07-21T05:56:50.726Z,152448.63
2023-07-21T05:59:17.092Z,152442.31
2023-07-21T06:01:43.367Z,152480.38
2023-07-21T06:04:09.653Z,152488.03
2023-07-21T06:06:35.947Z,152524.84
2023-07-21T06:09:02.201Z,152556.56
2023-07-21T06:11:28.485Z,152498.16
2023-07-21T06:13:54.837Z,152552.78
2023-07-21T06:16:21.129Z,152533.72
2023-07-21T06:18:47.406Z,152514.69
2023-07-21T06:21:13.655Z,152546.44
2023-07-21T06:23:39.936Z,152589.59
2023-07-21T06:26:07.207Z,152583.25
2023-07-21T06:28:33.517Z,152618.81
2023-07-21T06:30:59.929Z,152611.19
2023-07-21T06:33:26.271Z,152656.94
2023-07-21T06:35:52.577Z,152688.69
2023-07-21T06:38:18.876Z,152692.50
2023-07-21T06:40:45.160Z,152710.34
2023-07-21T06:43:11.420Z,152698.88
2023-07-21T06:45:37.726Z,152696.34
2023-07-21T06:48:04.136Z,152744.66
2023-07-21T06:50:30.447Z,152693.75
2023-07-21T06:52:56.695Z,152738.25
2023-07-21T06:55:22.916Z,152719.22
2023-07-21T06:57:49.171Z,152723.06
2023-07-21T07:00:15.428Z,152772.56
2023-07-21T07:02:41.698Z,152730.66
2023-07-21T07:05:08.029Z,152738.25
2023-07-21T07:07:34.416Z,152782.75
2023-07-21T07:10:00.734Z,152785.28
2023-07-21T07:12:27.081Z,152796.75
2023-07-21T07:14:53.374Z,152818.34
2023-07-21T07:17:19.655Z,152778.97
2023-07-21T07:19:45.927Z,152809.44
2023-07-21T07:22:12.167Z,152813.28
2023-07-21T07:24:38.519Z,152831.06
2023-07-21T07:27:04.767Z,152875.53
2023-07-21T07:29:30.999Z,152904.78
2023-07-21T07:31:57.255Z,152907.31
2023-07-21T07:34:23.602Z,152883.13
2023-07-21T07:36:49.904Z,152878.06
2023-07-21T07:39:16.132Z,152869.19
2023-07-21T07:41:42.361Z,152892.06
2023-07-21T07:44:08.584Z,152939.09
2023-07-21T07:46:34.899Z,152942.91
2023-07-21T07:49:01.323Z,152978.56
2023-07-21T07:51:27.829Z,152960.72
2023-07-21T07:53:54.316Z,152974.72
2023-07-21T07:56:20.561Z,152991.25
2023-07-21T07:58:46.870Z,153006.50
2023-07-21T08:01:13.159Z,152998.91
2023-07-21T08:03:39.650Z,152972.16
2023-07-21T08:06:06.016Z,153011.63
2023-07-21T08:08:32.370Z,152998.91
2023-07-21T08:10:58.693Z,153059.91
2023-07-21T08:13:25.019Z,153092.97
2023-07-21T08:15:51.370Z,153131.13
2023-07-21T08:18:17.708Z,153159.13
2023-07-21T08:20:44.460Z,153165.47
2023-07-21T08:23:19.472Z,153162.94
2023-07-21T08:25:50.040Z,153179.47
2023-07-21T08:28:16.326Z,153174.41
2023-07-21T08:30:56.616Z,153232.97
2023-07-21T08:33:24.946Z,153235.50
2023-07-21T08:35:51.268Z,153260.94
2023-07-21T08:38:17.567Z,153243.13
2023-07-21T08:40:43.806Z,153202.38
2023-07-21T08:43:10.049Z,153257.13
2023-07-21T08:45:36.353Z,153297.81
2023-07-21T08:48:02.715Z,153283.88
2023-07-21T08:50:31.347Z,153341.13
2023-07-21T08:52:57.688Z,153388.19
2023-07-21T08:55:23.993Z,153417.47
2023-07-21T08:57:50.277Z,153413.66
2023-07-21T09:00:16.490Z,153381.84
2023-07-21T09:02:44.568Z,153374.22
2023-07-21T09:05:11.093Z,153315.63
2023-07-21T09:07:37.423Z,153372.91
2023-07-21T09:10:04.103Z,153336.00
2023-07-21T09:12:30.357Z,153320.75
2023-07-21T09:14:56.632Z,153356.41
2023-07-21T09:17:22.948Z,153374.22
2023-07-21T09:19:49.250Z,153393.31
2023-07-21T09:22:15.492Z,153426.34
2023-07-21T09:24:41.825Z,153416.19
2023-07-21T09:27:08.222Z,153422.53
2023-07-21T09:29:34.594Z,153496.44
2023-07-21T09:32:00.932Z,153455.66
2023-07-21T09:34:27.197Z,153456.97
2023-07-21T09:36:53.435Z,153505.38
2023-07-21T09:39:19.704Z,153533.34
2023-07-21T09:41:46.045Z,153581.75
2023-07-21T09:44:12.337Z,153557.56
2023-07-21T09:46:38.712Z,153579.22
2023-07-21T09:49:04.991Z,153570.28
2023-07-21T09:51:31.425Z,153520.66
2023-07-21T09:53:57.669Z,153492.63
2023-07-21T09:56:24.200Z,153518.09
2023-07-21T09:58:50.934Z,153537.22
2023-07-21T10:01:17.292Z,153521.91
2023-07-21T10:03:43.815Z,153506.63
2023-07-21T10:06:10.079Z,153491.34
2023-07-21T10:08:36.445Z,153548.63
2023-07-21T10:11:02.774Z,153602.13
2023-07-21T10:13:29.159Z,153644.13
2023-07-21T10:15:55.517Z,153663.28
2023-07-21T10:18:21.864Z,153632.69
2023-07-21T10:20:48.167Z,153594.50
2023-07-21T10:23:14.435Z,153651.78
2023-07-21T10:25:40.770Z,153720.63
2023-07-21T10:28:07.051Z,153635.25
2023-07-21T10:30:33.418Z,153683.66
2023-07-21T10:32:59.756Z,153748.63
2023-07-21T10:35:26.054Z,153793.25
2023-07-21T10:37:52.357Z,153755.03
2023-07-21T10:40:18.603Z,153706.63
2023-07-21T10:42:44.979Z,153704.06
2023-07-21T10:45:11.307Z,153729.53
2023-07-21T10:47:37.663Z,153733.34
2023-07-21T10:50:03.998Z,153769.00
2023-07-21T10:52:30.251Z,153850.56
2023-07-21T10:54:56.518Z,154016.31
2023-07-21T10:57:22.782Z,154100.47
2023-07-21T10:59:49.074Z,153999.72
2023-07-21T11:02:15.433Z,153848.03
2023-07-21T11:04:42.051Z,153803.41
2023-07-21T11:07:08.791Z,153766.47
2023-07-21T11:09:35.832Z,153799.59
2023-07-21T11:12:02.769Z,153845.50
2023-07-21T11:14:29.111Z,153853.13
2023-07-21T11:16:55.917Z,153956.41
2023-07-21T11:19:22.330Z,153983.16
2023-07-21T11:21:50.900Z,153902.88
2023-07-21T11:24:18.333Z,153942.38
2023-07-21T11:26:44.610Z,153984.44
2023-07-21T11:29:11.233Z,153901.56
2023-07-21T11:31:37.592Z,153885.00
2023-07-21T11:34:03.904Z,153836.56
2023-07-21T11:36:30.191Z,153788.13
2023-07-21T11:38:56.471Z,153786.84
2023-07-21T11:41:22.801Z,153777.94
2023-07-21T11:43:49.127Z,153791.97
2023-07-21T11:46:15.458Z,153816.16
2023-07-21T11:48:41.759Z,153879.84
2023-07-21T11:51:08.190Z,153862.00
2023-07-21T11:53:34.412Z,153878.59
2023-07-21T11:56:00.756Z,153932.16
2023-07-21T11:58:27.131Z,153854.38
2023-07-21T12:00:53.432Z,153771.56
2023-07-21T12:03:19.821Z,153753.75
2023-07-21T12:05:46.328Z,153797.06
2023-07-21T12:08:12.648Z,153760.13
2023-07-21T12:10:39.207Z,153777.94
2023-07-21T12:13:05.669Z,153757.56
2023-07-21T12:15:31.967Z,153683.66
2023-07-21T12:17:58.207Z,153668.34
2023-07-21T12:20:24.433Z,153706.63
2023-07-21T12:22:50.706Z,153757.56
2023-07-21T12:25:16.990Z,153777.94
2023-07-21T12:27:45.874Z,153774.16
2023-07-21T12:30:12.465Z,153727.00
2023-07-21T12:32:39.132Z,153795.78
2023-07-21T12:35:05.516Z,153929.63
2023-07-21T12:37:32.086Z,153994.66
2023-07-21T12:39:58.381Z,154064.75
2023-07-21T12:42:24.648Z,154006.09
2023-07-21T12:44:50.871Z,154049.47
2023-07-21T12:47:17.069Z,154170.66
2023-07-21T12:49:43.303Z,154157.88
2023-07-21T12:52:10.059Z,154083.88
2023-07-21T12:54:36.344Z,154114.50
2023-07-21T12:57:02.748Z,154020.13
2023-07-21T12:59:29.996Z,154071.13
2023-07-21T13:01:56.528Z,154266.28
2023-07-21T13:04:23.221Z,154382.41
2023-07-21T13:06:49.561Z,154549.63
2023-07-21T13:09:15.813Z,154647.94
2023-07-21T13:11:42.110Z,154667.09
2023-07-21T13:14:08.395Z,154556.03
2023-07-21T13:16:34.751Z,154448.78
2023-07-21T13:19:01.102Z,154177.00
2023-07-21T13:21:27.365Z,154134.94
2023-07-21T13:23:53.830Z,154117.09
2023-07-21T13:26:20.056Z,154052.00
2023-07-21T13:28:51.185Z,153939.84
2023-07-21T13:31:17.479Z,153961.50
2023-07-21T13:33:43.762Z,153965.31
2023-07-21T13:36:10.134Z,154126.00
2023-07-21T13:38:36.387Z,154254.78
2023-07-21T13:41:02.652Z,154355.66
2023-07-21T13:43:28.919Z,154467.91
2023-07-21T13:45:55.206Z,154303.28
2023-07-21T13:48:21.633Z,154184.66
2023-07-21T13:50:48.051Z,153939.84
2023-07-21T13:53:14.320Z,153867.16
2023-07-21T13:55:40.620Z,153834.00
2023-07-21T13:58:06.842Z,153752.44
2023-07-21T14:00:33.104Z,153710.41
2023-07-21T14:02:59.572Z,153639.03
2023-07-21T14:05:25.913Z,153541.00
2023-07-21T14:07:52.217Z,153442.91
2023-07-21T14:10:18.478Z,153378.03
2023-07-21T14:12:45.851Z,153329.66
2023-07-21T14:15:12.166Z,153258.38
2023-07-21T14:17:38.522Z,153222.75
2023-07-21T14:20:04.893Z,153211.28
2023-07-21T14:22:31.205Z,153208.72
2023-07-21T14:24:57.463Z,153197.28
2023-07-21T14:27:23.774Z,153202.38
2023-07-21T14:29:50.177Z,153175.69
2023-07-21T14:32:16.515Z,153084.09
2023-07-21T14:34:42.810Z,153061.19
2023-07-21T14:37:09.071Z,153057.38
2023-07-21T14:39:35.396Z,152972.16
2023-07-21T14:42:01.746Z,152940.38
2023-07-21T14:44:28.022Z,152981.09
2023-07-21T14:46:54.334Z,153038.31
2023-07-21T14:49:20.653Z,153031.97
2023-07-21T14:51:46.921Z,153034.50
2023-07-21T14:54:13.830Z,153061.19
2023-07-21T14:56:40.198Z,153051.03
2023-07-21T14:59:06.484Z,152913.66
2023-07-21T15:01:32.843Z,152856.47
2023-07-21T15:03:59.174Z,152885.72
2023-07-21T15:06:25.887Z,152885.72
2023-07-21T15:08:52.283Z,152842.47
2023-07-21T15:11:18.562Z,152913.66
2023-07-21T15:13:44.852Z,152955.59
2023-07-21T15:16:11.134Z,153006.50
2023-07-21T15:18:37.423Z,153039.56
2023-07-21T15:21:03.682Z,153047.19
2023-07-21T15:23:29.928Z,153071.38
2023-07-21T15:25:56.218Z,153113.31
2023-07-21T15:28:22.493Z,153126.06
2023-07-21T15:30:50.254Z,153086.63
2023-07-21T15:33:16.825Z,153137.47
2023-07-21T15:35:43.197Z,153152.75
2023-07-21T15:38:09.476Z,153154.00
2023-07-21T15:40:35.807Z,153156.59
2023-07-21T15:43:02.096Z,153169.28
2023-07-21T15:45:28.394Z,153169.28
2023-07-21T15:47:54.659Z,153124.78
2023-07-21T15:50:20.978Z,153154.00
2023-07-21T15:52:47.219Z,153014.16
2023-07-21T15:55:14.642Z,152997.63
2023-07-21T15:57:40.992Z,153042.09
2023-07-21T16:00:07.285Z,152967.09
2023-07-21T16:02:33.587Z,152961.97
2023-07-21T16:04:59.983Z,152960.72
2023-07-21T16:07:26.366Z,152982.38
2023-07-21T16:09:56.421Z,153010.31
2023-07-21T16:12:22.731Z,153019.22
2023-07-21T16:14:48.947Z,153021.75
2023-07-21T16:17:15.247Z,153033.22
2023-07-21T16:19:41.533Z,153031.97
2023-07-21T16:22:07.842Z,153023.03
2023-07-21T16:24:34.210Z,153034.50
2023-07-21T16:27:01.685Z,153024.31
2023-07-21T16:29:27.927Z,152983.63
2023-07-21T16:31:54.240Z,153002.69
2023-07-21T16:34:20.629Z,152977.28
2023-07-21T16:36:46.886Z,152989.97
2023-07-21T16:39:13.514Z,152993.81
2023-07-21T16:41:39.763Z,152950.53
2023-07-21T16:44:05.999Z,152969.63
2023-07-21T16:46:32.370Z,152955.59
2023-07-21T16:48:58.685Z,152927.66
2023-07-21T16:51:25.255Z,152914.91
2023-07-21T16:53:51.686Z,152932.72
2023-07-21T16:56:18.012Z,152923.84
2023-07-21T16:58:44.272Z,152950.53
2023-07-21T17:01:10.571Z,152920.00
2023-07-21T17:03:37.079Z,152969.63
2023-07-21T17:06:03.528Z,153049.75
2023-07-21T17:08:29.788Z,153067.56
2023-07-21T17:10:56.119Z,153196.03
2023-07-21T17:13:22.350Z,153325.84
2023-07-21T17:15:48.608Z,153394.56
2023-07-21T17:18:14.935Z,153444.19
2023-07-21T17:20:41.240Z,153446.78
2023-07-21T17:23:07.528Z,153411.13
2023-07-21T17:25:33.784Z,153406.00
2023-07-21T17:28:00.095Z,153423.81
2023-07-21T17:30:26.398Z,153408.53
2023-07-21T17:32:54.091Z,153389.44
2023-07-21T17:35:20.367Z,153400.91
2023-07-21T17:37:46.572Z,153384.38
2023-07-21T17:40:13.284Z,153343.66
2023-07-21T17:42:39.809Z,153355.13
2023-07-21T17:45:06.105Z,153358.94
2023-07-21T17:47:32.385Z,153305.50
2023-07-21T17:49:58.705Z,153286.41
2023-07-21T17:52:24.984Z,153248.25
2023-07-21T17:54:51.191Z,153126.06
2023-07-21T17:57:17.488Z,153143.88
2023-07-21T17:59:43.743Z,153095.53
2023-07-21T18:02:10.051Z,153080.25
2023-07-21T18:04:36.276Z,153066.28
2023-07-21T18:07:02.565Z,153016.69
2023-07-21T18:09:28.824Z,153062.44
2023-07-21T18:11:55.078Z,153103.19
2023-07-21T18:14:21.382Z,153087.91
2023-07-21T18:16:47.673Z,153110.78
2023-07-21T18:19:13.937Z,153076.44
2023-07-21T18:21:40.333Z,153039.56
2023-07-21T18:24:06.719Z,153015.44
2023-07-21T18:26:33.515Z,152996.34
2023-07-21T18:28:59.764Z,153002.69
2023-07-21T18:31:26.215Z,152979.81
2023-07-21T18:33:52.712Z,152947.97
2023-07-21T18:36:18.959Z,152956.84
2023-07-21T18:38:45.217Z,152942.91
2023-07-21T18:41:11.431Z,152922.56
2023-07-21T18:43:37.736Z,152936.53
2023-07-21T18:46:06.736Z,152928.91
2023-07-21T18:48:32.997Z,152925.09
2023-07-21T18:50:59.235Z,152934.00
2023-07-21T18:53:25.475Z,152927.66
2023-07-21T18:55:51.832Z,152936.53
2023-07-21T18:58:18.194Z,152897.13
2023-07-21T19:00:44.510Z,152879.34
2023-07-21T19:03:10.851Z,152855.19
2023-07-21T19:05:37.289Z,152857.72
2023-07-21T19:08:03.728Z,152870.47
2023-07-21T19:10:30.031Z,152832.34
2023-07-21T19:12:56.254Z,152795.47
2023-07-21T19:15:22.485Z,152806.88
2023-07-21T19:17:48.906Z,152818.34
2023-07-21T19:20:15.598Z,152790.38
2023-07-21T19:22:41.937Z,152815.81
2023-07-21T19:25:08.192Z,152823.41
2023-07-21T19:27:36.494Z,152815.81
2023-07-21T19:30:02.803Z,152778.97
2023-07-21T19:32:29.132Z,152702.69
2023-07-21T19:34:55.411Z,152689.97
2023-07-21T19:37:21.720Z,152639.16
2023-07-21T19:39:48.005Z,152597.25
2023-07-21T19:42:14.292Z,152607.38
2023-07-21T19:44:40.582Z,152576.88
2023-07-21T19:47:06.902Z,152578.19
2023-07-21T19:49:33.194Z,152592.13
2023-07-21T19:51:59.467Z,152575.63
2023-07-21T19:54:25.677Z,152592.13
2023-07-21T19:56:51.975Z,152580.72
2023-07-21T19:59:18.248Z,152562.94
2023-07-21T20:01:44.599Z,152598.50
2023-07-21T20:04:11.089Z,152585.78
2023-07-21T20:06:37.542Z,152594.66
2023-07-21T20:09:03.934Z,152627.69
2023-07-21T20:11:30.318Z,152622.63
2023-07-21T20:13:56.625Z,152551.50
2023-07-21T20:16:23.092Z,152551.50
2023-07-21T20:18:49.434Z,152531.19
2023-07-21T20:21:15.674Z,152465.16
2023-07-21T20:23:41.976Z,152474.06
2023-07-21T20:26:08.225Z,152438.50
2023-07-21T20:28:34.477Z,152435.97
2023-07-21T20:31:00.763Z,152432.13
2023-07-21T20:33:27.096Z,152404.19
2023-07-21T20:35:53.425Z,152429.59
2023-07-21T20:38:19.750Z,152429.59
2023-07-21T20:40:46.006Z,152448.63
2023-07-21T20:43:12.213Z,152455.03
2023-07-21T20:45:38.491Z,152411.81
2023-07-21T20:48:05.023Z,152396.53
2023-07-21T20:50:31.364Z,152416.94
2023-07-21T20:52:57.665Z,152427.06
2023-07-21T20:55:23.913Z,152402.91
2023-07-21T20:57:50.545Z,152358.47
2023-07-21T21:00:16.830Z,152390.19
2023-07-21T21:02:46.011Z,152364.84
2023-07-21T21:05:12.238Z,152373.69
2023-07-21T21:07:38.500Z,152352.13
2023-07-21T21:10:04.791Z,152335.63
2023-07-21T21:12:31.019Z,152331.84
2023-07-21T21:14:57.368Z,152333.09
2023-07-21T21:17:24.507Z,152344.53
2023-07-21T21:19:50.975Z,152348.34
2023-07-21T21:22:17.485Z,152335.63
2023-07-21T21:24:43.825Z,152338.16
2023-07-21T21:27:10.255Z,152312.78
2023-07-21T21:29:36.496Z,152283.59
2023-07-21T21:32:02.799Z,152305.16
2023-07-21T21:34:29.120Z,152302.63
2023-07-21T21:36:55.431Z,152295.03
2023-07-21T21:39:21.695Z,152282.31
2023-07-21T21:41:47.966Z,152302.63
2023-07-21T21:44:14.290Z,152310.28
2023-07-21T21:46:40.583Z,152328.03
2023-07-21T21:49:06.876Z,152310.28
2023-07-21T21:51:33.465Z,152303.88
2023-07-21T21:53:59.976Z,152305.16
2023-07-21T21:56:26.364Z,152295.03
2023-07-21T21:58:52.700Z,152256.97
2023-07-21T22:01:19.045Z,152286.13
2023-07-21T22:03:45.748Z,152300.09
2023-07-21T22:06:12.114Z,152297.56
2023-07-21T22:08:38.400Z,152303.88
2023-07-21T22:11:04.785Z,152286.13
2023-07-21T22:13:32.892Z,152326.78
2023-07-21T22:16:00.307Z,152303.88
2023-07-21T22:18:26.569Z,152236.66
2023-07-21T22:20:53.241Z,152237.94
2023-07-21T22:23:19.530Z,152226.50
2023-07-21T22:25:45.792Z,152211.28
2023-07-21T22:28:12.529Z,152164.34
2023-07-21T22:30:38.852Z,152149.13
2023-07-21T22:33:05.226Z,152112.34
2023-07-21T22:35:31.577Z,152113.63
2023-07-21T22:37:57.867Z,152118.66
2023-07-21T22:40:27.612Z,152145.34
2023-07-21T22:42:53.893Z,152122.47
2023-07-21T22:45:20.133Z,152108.56
2023-07-21T22:47:46.406Z,152133.91
2023-07-21T22:50:12.704Z,152104.72
2023-07-21T22:52:39.008Z,152114.88
2023-07-21T22:55:05.231Z,152114.88
2023-07-21T22:57:31.491Z,152105.97
2023-07-21T22:59:57.760Z,152126.31
2023-07-21T23:02:24.009Z,152131.38
2023-07-21T23:04:50.356Z,152127.56
2023-07-21T23:07:16.713Z,152135.16
2023-07-21T23:09:43.008Z,152137.69
2023-07-21T23:12:09.275Z,152168.16
2023-07-21T23:14:35.565Z,152132.63
2023-07-21T23:17:01.802Z,152150.41
2023-07-21T23:19:28.079Z,152164.34
2023-07-21T23:21:54.340Z,152159.25
2023-07-21T23:24:20.615Z,152160.50
2023-07-21T23:26:46.913Z,152175.75
2023-07-21T23:29:13.155Z,152171.94
2023-07-21T23:31:39.423Z,152150.41
2023-07-21T23:34:05.655Z,152131.38
2023-07-21T23:36:31.980Z,152119.94
2023-07-21T23:38:58.266Z,152108.56
2023-07-21T23:41:24.491Z,152125.00
2023-07-21T23:43:50.762Z,152152.91
2023-07-21T23:46:17.175Z,152155.44
2023-07-21T23:48:43.501Z,152144.00
2023-07-21T23:51:09.803Z,152165.63
2023-07-21T23:53:36.270Z,152141.50
2023-07-21T23:56:02.504Z,152123.72
2023-07-21T23:58:28.806Z,152093.28
